Anna, Ohio
Current Conditions -  °F | °C
As of 5:53 PM on Wednesday 17 Dec 2014 (Local Time) from KAXV Reporting Station
Overcast Overcast  
Wind Chill: 20°   Ceiling: 1200
Heat Index: 28°   Visibility: 10mi
Dew Point: 27°   Wind: 9mph
Humidity: 93%   Direction: 300°WNW
Pressure: 30.22"   Gusts: NA
Location:  40.39°N, 84.17°W
Report Text: KAXV 172253Z AUTO 30008KT 10SM OVC012 M02/M03 A3022 RMK AO2
Loading
Personal Weather Stations






























Interactive Weather Map New forecast layout! Learn more

10-Day Weather Forecast

Advertisements
Track Severe Weather on mobile